createdAt,value
2022-08-24T00:00:48.543Z,101258.97
2022-08-24T00:01:50.631Z,101265.50
2022-08-24T00:02:53.063Z,101260.63
2022-08-24T00:03:57.788Z,101264.25
2022-08-24T00:05:01.843Z,101263.91
2022-08-24T00:06:06.397Z,101257.50
2022-08-24T00:07:15.897Z,101257.88
2022-08-24T00:08:29.496Z,101255.19
2022-08-24T00:09:35.029Z,101261.28
2022-08-24T00:10:37.283Z,101264.09
2022-08-24T00:11:39.266Z,101261.81
2022-08-24T00:12:41.495Z,101265.50
2022-08-24T00:13:44.706Z,101264.47
2022-08-24T00:14:46.766Z,101261.25
2022-08-24T00:15:52.141Z,101261.00
2022-08-24T00:16:54.949Z,101264.41
2022-08-24T00:17:57.311Z,101262.75
2022-08-24T00:19:00.797Z,101260.72
2022-08-24T00:20:03.478Z,101263.56
2022-08-24T00:21:06.549Z,101269.19
2022-08-24T00:22:10.207Z,101272.59
2022-08-24T00:23:12.256Z,101272.22
2022-08-24T00:24:14.882Z,101267.84
2022-08-24T00:25:17.630Z,101271.03
2022-08-24T00:26:29.266Z,101267.06
2022-08-24T00:27:31.481Z,101267.13
2022-08-24T00:28:34.419Z,101266.75
2022-08-24T00:29:36.523Z,101266.25
2022-08-24T00:30:38.884Z,101269.44
2022-08-24T00:31:41.089Z,101267.91
2022-08-24T00:32:45.453Z,101269.81
2022-08-24T00:33:48.251Z,101268.22
2022-08-24T00:34:58.316Z,101268.72
2022-08-24T00:36:01.527Z,101272.78
2022-08-24T00:37:04.552Z,101277.59
2022-08-24T00:38:07.248Z,101275.22
2022-08-24T00:39:09.541Z,101267.97
2022-08-24T00:40:19.466Z,101272.00
2022-08-24T00:41:22.677Z,101274.50
2022-08-24T00:42:25.386Z,101269.34
2022-08-24T00:43:28.959Z,101272.94
2022-08-24T00:44:31.273Z,101270.56
2022-08-24T00:45:48.801Z,101270.91
2022-08-24T00:46:59.878Z,101273.72
2022-08-24T00:48:12.152Z,101276.50
2022-08-24T00:49:20.616Z,101273.81
2022-08-24T00:50:27.364Z,101276.31
2022-08-24T00:51:36.309Z,101275.09
2022-08-24T00:52:46.696Z,101279.53
2022-08-24T00:53:53.680Z,101274.84
2022-08-24T00:55:00.844Z,101276.44
2022-08-24T00:56:09.300Z,101277.28
2022-08-24T00:57:13.811Z,101282.47
2022-08-24T00:58:31.899Z,101278.16
2022-08-24T00:59:39.260Z,101274.13
2022-08-24T01:00:45.522Z,101280.66
2022-08-24T01:01:52.229Z,101283.41
2022-08-24T01:02:59.730Z,101275.00
2022-08-24T01:04:03.372Z,101273.44
2022-08-24T01:05:08.818Z,101288.31
2022-08-24T01:06:12.692Z,101285.44
2022-08-24T01:07:15.325Z,101279.00
2022-08-24T01:08:17.530Z,101280.25
2022-08-24T01:09:19.775Z,101289.91
2022-08-24T01:10:26.300Z,101275.44
2022-08-24T01:11:33.756Z,101277.53
2022-08-24T01:12:39.577Z,101292.34
2022-08-24T01:13:46.070Z,101275.88
2022-08-24T01:14:48.700Z,101283.91
2022-08-24T01:15:58.158Z,101283.16
2022-08-24T01:17:18.945Z,101280.34
2022-08-24T01:18:42.571Z,101277.94
2022-08-24T01:19:49.239Z,101280.34
2022-08-24T01:21:06.199Z,101282.44
2022-08-24T01:22:25.964Z,101277.63
2022-08-24T01:23:49.471Z,101285.34
2022-08-24T01:24:54.055Z,101281.66
2022-08-24T01:25:56.529Z,101287.25
2022-08-24T01:27:02.921Z,101284.47
2022-08-24T01:28:10.558Z,101282.88
2022-08-24T01:29:29.235Z,101285.78
2022-08-24T01:30:36.175Z,101278.03
2022-08-24T01:31:39.611Z,101281.63
2022-08-24T01:32:52.671Z,101282.56
2022-08-24T01:33:55.881Z,101278.94
2022-08-24T01:34:58.661Z,101289.00
2022-08-24T01:36:08.819Z,101284.19
2022-08-24T01:37:11.747Z,101280.16
2022-08-24T01:38:16.857Z,101285.06
2022-08-24T01:39:54.379Z,101291.91
2022-08-24T01:41:01.991Z,101291.53
2022-08-24T01:42:05.145Z,101288.34
2022-08-24T01:43:11.156Z,101294.00
2022-08-24T01:44:14.193Z,101285.16
2022-08-24T01:45:16.941Z,101285.16
2022-08-24T01:46:19.034Z,101290.78
2022-08-24T01:47:21.156Z,101277.88
2022-08-24T01:48:23.639Z,101286.75
2022-08-24T01:49:31.419Z,101286.75
2022-08-24T01:50:35.114Z,101284.38
2022-08-24T01:51:37.239Z,101287.25
2022-08-24T01:53:03.796Z,101282.81
2022-08-24T01:54:06.065Z,101292.50
2022-08-24T01:55:10.691Z,101292.50
2022-08-24T01:56:13.268Z,101291.00
2022-08-24T01:57:17.078Z,101288.16
2022-08-24T01:58:20.633Z,101285.34
2022-08-24T01:59:23.089Z,101285.34
2022-08-24T02:00:26.236Z,101286.16
2022-08-24T02:01:30.812Z,101289.38
2022-08-24T02:02:33.283Z,101283.75
2022-08-24T02:03:35.347Z,101291.84
2022-08-24T02:04:37.864Z,101283.03
2022-08-24T02:05:41.353Z,101282.63
2022-08-24T02:06:46.398Z,101276.59
2022-08-24T02:07:51.039Z,101289.88
2022-08-24T02:08:53.257Z,101278.66
2022-08-24T02:09:55.365Z,101284.63
2022-08-24T02:10:57.465Z,101284.63
2022-08-24T02:12:00.537Z,101293.13
2022-08-24T02:13:03.191Z,101275.84
2022-08-24T02:14:06.156Z,101288.75
2022-08-24T02:15:09.637Z,101290.72
2022-08-24T02:16:12.379Z,101299.19
2022-08-24T02:17:14.505Z,101294.75
2022-08-24T02:18:16.583Z,101287.16
2022-08-24T02:19:19.358Z,101296.06
2022-08-24T02:20:21.983Z,101289.22
2022-08-24T02:21:25.809Z,101290.44
2022-08-24T02:22:28.164Z,101292.91
2022-08-24T02:23:31.455Z,101297.66
2022-08-24T02:24:35.753Z,101294.50
2022-08-24T02:25:38.289Z,101294.47
2022-08-24T02:26:40.890Z,101296.53
2022-08-24T02:27:45.909Z,101297.72
2022-08-24T02:28:48.902Z,101303.38
2022-08-24T02:29:50.939Z,101299.34
2022-08-24T02:30:53.781Z,101295.75
2022-08-24T02:31:57.868Z,101299.34
2022-08-24T02:33:00.485Z,101302.16
2022-08-24T02:34:03.128Z,101295.31
2022-08-24T02:35:06.067Z,101298.63
2022-08-24T02:36:25.842Z,101297.75
2022-08-24T02:37:31.691Z,101296.16
2022-08-24T02:38:34.518Z,101298.13
2022-08-24T02:39:44.176Z,101297.72
2022-08-24T02:40:50.325Z,101298.09
2022-08-24T02:41:53.071Z,101301.34
2022-08-24T02:42:55.912Z,101304.09
2022-08-24T02:43:59.803Z,101300.09
2022-08-24T02:45:04.263Z,101301.69
2022-08-24T02:46:17.963Z,101305.59
2022-08-24T02:47:20.413Z,101302.09
2022-08-24T02:48:22.704Z,101312.47
2022-08-24T02:49:26.767Z,101310.78
2022-08-24T02:50:29.225Z,101309.22
2022-08-24T02:51:42.259Z,101308.38
2022-08-24T02:52:47.844Z,101307.88
2022-08-24T02:53:50.537Z,101306.66
2022-08-24T02:54:52.848Z,101309.06
2022-08-24T02:55:55.335Z,101309.44
2022-08-24T02:56:57.691Z,101307.75
2022-08-24T02:58:01.078Z,101308.66
2022-08-24T02:59:03.986Z,101313.50
2022-08-24T03:00:10.588Z,101316.34
2022-08-24T03:01:23.940Z,101323.94
2022-08-24T03:02:32.427Z,101311.91
2022-08-24T03:03:34.757Z,101316.84
2022-08-24T03:04:36.975Z,101319.91
2022-08-24T03:05:39.924Z,101311.00
2022-08-24T03:06:44.820Z,101314.63
2022-08-24T03:07:47.249Z,101315.75
2022-08-24T03:08:54.700Z,101320.94
2022-08-24T03:09:59.074Z,101320.03
2022-08-24T03:11:01.528Z,101317.63
2022-08-24T03:12:04.178Z,101318.75
2022-08-24T03:13:07.874Z,101320.50
2022-08-24T03:14:10.459Z,101315.66
2022-08-24T03:15:13.480Z,101318.13
2022-08-24T03:16:19.095Z,101321.25
2022-08-24T03:17:21.476Z,101317.69
2022-08-24T03:18:26.024Z,101317.25
2022-08-24T03:19:28.695Z,101318.28
2022-08-24T03:20:31.287Z,101321.97
2022-08-24T03:21:33.854Z,101314.69
2022-08-24T03:22:36.136Z,101326.72
2022-08-24T03:23:38.176Z,101322.69
2022-08-24T03:24:40.251Z,101322.56
2022-08-24T03:25:42.375Z,101326.16
2022-08-24T03:26:44.802Z,101327.28
2022-08-24T03:27:48.178Z,101329.72
2022-08-24T03:28:50.963Z,101333.66
2022-08-24T03:29:54.180Z,101330.44
2022-08-24T03:30:56.860Z,101333.25
2022-08-24T03:31:59.724Z,101325.41
2022-08-24T03:33:02.259Z,101325.78
2022-08-24T03:34:05.246Z,101324.44
2022-08-24T03:35:08.288Z,101334.00
2022-08-24T03:36:14.103Z,101327.06
2022-08-24T03:37:16.966Z,101331.38
2022-08-24T03:38:19.778Z,101332.03
2022-08-24T03:39:21.936Z,101333.69
2022-08-24T03:40:28.630Z,101330.44
2022-08-24T03:41:32.319Z,101334.31
2022-08-24T03:42:39.826Z,101337.03
2022-08-24T03:43:49.174Z,101332.53
2022-08-24T03:44:53.765Z,101334.50
2022-08-24T03:45:55.970Z,101333.22
2022-08-24T03:47:03.961Z,101338.31
2022-08-24T03:48:06.649Z,101339.47
2022-08-24T03:49:10.528Z,101331.38
2022-08-24T03:50:14.003Z,101335.28
2022-08-24T03:51:20.138Z,101344.03
2022-08-24T03:52:24.737Z,101341.66
2022-08-24T03:53:28.286Z,101338.25
2022-08-24T03:54:33.986Z,101338.97
2022-08-24T03:55:36.619Z,101338.19
2022-08-24T03:56:39.508Z,101339.03
2022-08-24T03:57:41.604Z,101336.03
2022-08-24T03:58:44.443Z,101336.91
2022-08-24T03:59:47.474Z,101337.47
2022-08-24T04:00:50.284Z,101336.59
2022-08-24T04:01:56.656Z,101342.47
2022-08-24T04:03:00.622Z,101334.28
2022-08-24T04:04:05.479Z,101340.13
2022-08-24T04:05:12.496Z,101333.03
2022-08-24T04:06:18.383Z,101346.59
2022-08-24T04:07:28.014Z,101341.69
2022-08-24T04:08:32.678Z,101339.84
2022-08-24T04:09:35.347Z,101339.16
2022-08-24T04:10:38.550Z,101347.78
2022-08-24T04:11:41.636Z,101343.59
2022-08-24T04:12:45.153Z,101344.88
2022-08-24T04:13:52.500Z,101345.06
2022-08-24T04:14:57.856Z,101352.66
2022-08-24T04:16:07.226Z,101343.19
2022-08-24T04:17:14.439Z,101344.13
2022-08-24T04:18:20.161Z,101350.66
2022-08-24T04:19:22.932Z,101353.88
2022-08-24T04:20:26.296Z,101341.69
2022-08-24T04:21:31.578Z,101348.34
2022-08-24T04:22:38.050Z,101349.34
2022-08-24T04:23:47.206Z,101359.91
2022-08-24T04:24:52.314Z,101355.56
2022-08-24T04:26:04.454Z,101353.88
2022-08-24T04:27:06.815Z,101354.97
2022-08-24T04:28:09.483Z,101365.44
2022-08-24T04:29:17.741Z,101365.81
2022-08-24T04:30:28.984Z,101366.63
2022-08-24T04:31:40.658Z,101369.34
2022-08-24T04:32:43.221Z,101365.84
2022-08-24T04:33:49.909Z,101366.97
2022-08-24T04:34:58.261Z,101367.97
2022-08-24T04:36:02.821Z,101370.63
2022-08-24T04:37:11.331Z,101364.88
2022-08-24T04:38:16.442Z,101376.63
2022-08-24T04:39:28.542Z,101374.88
2022-08-24T04:41:00.202Z,101365.91
2022-08-24T04:42:03.732Z,101365.94
2022-08-24T04:43:11.736Z,101372.28
2022-08-24T04:44:14.676Z,101367.50
2022-08-24T04:45:16.903Z,101364.59
2022-08-24T04:46:20.220Z,101365.63
2022-08-24T04:47:23.023Z,101361.81
2022-08-24T04:48:25.330Z,101371.38
2022-08-24T04:49:27.751Z,101370.56
2022-08-24T04:50:31.088Z,101367.34
2022-08-24T04:51:36.570Z,101367.47
2022-08-24T04:52:39.847Z,101369.53
2022-08-24T04:53:42.829Z,101366.94
2022-08-24T04:54:45.578Z,101371.41
2022-08-24T04:55:55.658Z,101370.66
2022-08-24T04:56:59.851Z,101369.66
2022-08-24T04:58:02.035Z,101364.88
2022-08-24T04:59:06.009Z,101368.81
2022-08-24T05:00:35.557Z,101372.38
2022-08-24T05:01:48.635Z,101372.56
2022-08-24T05:02:55.635Z,101372.09
2022-08-24T05:03:59.647Z,101366.41
2022-08-24T05:05:03.932Z,101366.53
2022-08-24T05:06:15.278Z,101367.44
2022-08-24T05:07:18.629Z,101368.22
2022-08-24T05:08:21.203Z,101366.19
2022-08-24T05:09:24.256Z,101371.47
2022-08-24T05:10:33.826Z,101370.13
2022-08-24T05:11:42.539Z,101371.53
2022-08-24T05:12:55.294Z,101367.97
2022-08-24T05:13:59.748Z,101376.50
2022-08-24T05:15:03.552Z,101365.97
2022-08-24T05:16:24.479Z,101367.25
2022-08-24T05:17:31.577Z,101373.94
2022-08-24T05:18:35.458Z,101369.09
2022-08-24T05:19:39.602Z,101369.81
2022-08-24T05:20:47.142Z,101364.88
2022-08-24T05:21:50.492Z,101364.88
2022-08-24T05:22:56.315Z,101363.78
2022-08-24T05:24:01.009Z,101367.72
2022-08-24T05:25:07.357Z,101371.09
2022-08-24T05:26:16.634Z,101368.53
2022-08-24T05:27:19.771Z,101369.34
2022-08-24T05:28:27.432Z,101367.69
2022-08-24T05:29:36.014Z,101358.47
2022-08-24T05:30:42.679Z,101358.91
2022-08-24T05:31:46.509Z,101360.13
2022-08-24T05:32:49.897Z,101360.47
2022-08-24T05:33:53.482Z,101368.88
2022-08-24T05:34:56.259Z,101363.84
2022-08-24T05:35:59.137Z,101367.75
2022-08-24T05:37:01.360Z,101364.13
2022-08-24T05:38:23.882Z,101365.50
2022-08-24T05:39:26.526Z,101367.53
2022-08-24T05:40:33.394Z,101362.47
2022-08-24T05:41:46.849Z,101359.72
2022-08-24T05:42:57.415Z,101370.03
2022-08-24T05:43:59.632Z,101373.78
2022-08-24T05:45:17.021Z,101369.25
2022-08-24T05:46:21.078Z,101375.94
2022-08-24T05:47:23.451Z,101372.03
2022-08-24T05:48:27.441Z,101375.06
2022-08-24T05:49:53.865Z,101376.94
2022-08-24T05:50:57.470Z,101372.88
2022-08-24T05:52:04.236Z,101382.03
2022-08-24T05:53:06.617Z,101381.69
2022-08-24T05:54:11.545Z,101383.69
2022-08-24T05:55:42.522Z,101376.13
2022-08-24T05:56:45.764Z,101383.44
2022-08-24T05:57:47.854Z,101382.88
2022-08-24T05:58:56.252Z,101383.00
2022-08-24T05:59:58.523Z,101385.81
2022-08-24T06:01:10.666Z,101375.81
2022-08-24T06:02:13.492Z,101381.53
2022-08-24T06:03:17.235Z,101380.69
2022-08-24T06:04:25.190Z,101380.06
2022-08-24T06:05:28.563Z,101377.47
2022-08-24T06:06:32.496Z,101377.78
2022-08-24T06:07:34.674Z,101375.03
2022-08-24T06:08:41.454Z,101376.97
2022-08-24T06:09:45.939Z,101371.25
2022-08-24T06:10:48.299Z,101377.94
2022-08-24T06:11:50.892Z,101382.19
2022-08-24T06:12:53.823Z,101379.81
2022-08-24T06:14:00.290Z,101375.94
2022-08-24T06:15:06.248Z,101377.78
2022-08-24T06:16:21.273Z,101367.59
2022-08-24T06:17:25.098Z,101375.91
2022-08-24T06:18:27.443Z,101371.06
2022-08-24T06:19:30.283Z,101369.63
2022-08-24T06:20:39.238Z,101367.28
2022-08-24T06:21:42.239Z,101368.94
2022-08-24T06:22:44.699Z,101367.06
2022-08-24T06:23:47.335Z,101368.72
2022-08-24T06:25:08.246Z,101377.78
2022-08-24T06:26:31.514Z,101374.41
2022-08-24T06:27:34.346Z,101378.78
2022-08-24T06:28:39.872Z,101372.00
2022-08-24T06:29:41.945Z,101376.69
2022-08-24T06:31:07.815Z,101369.00
2022-08-24T06:32:11.876Z,101367.81
2022-08-24T06:33:13.972Z,101367.78
2022-08-24T06:34:19.609Z,101371.63
2022-08-24T06:35:23.335Z,101368.78
2022-08-24T06:36:25.936Z,101370.03
2022-08-24T06:37:29.448Z,101360.53
2022-08-24T06:38:32.436Z,101369.13
2022-08-24T06:39:35.144Z,101372.97
2022-08-24T06:40:38.093Z,101382.56
2022-08-24T06:41:41.532Z,101370.56
2022-08-24T06:42:47.540Z,101366.09
2022-08-24T06:43:59.332Z,101371.56
2022-08-24T06:45:18.032Z,101374.09
2022-08-24T06:46:24.954Z,101369.34
2022-08-24T06:47:29.200Z,101378.22
2022-08-24T06:48:35.520Z,101369.50
2022-08-24T06:49:38.922Z,101372.03
2022-08-24T06:50:41.160Z,101369.88
2022-08-24T06:51:45.473Z,101371.41
2022-08-24T06:52:50.827Z,101366.63
2022-08-24T06:53:56.263Z,101369.22
2022-08-24T06:54:59.305Z,101369.31
2022-08-24T06:56:01.573Z,101379.03
2022-08-24T06:57:10.406Z,101375.94
2022-08-24T06:58:14.811Z,101375.03
2022-08-24T06:59:17.060Z,101364.00
2022-08-24T07:00:19.925Z,101375.78
2022-08-24T07:01:27.624Z,101370.00
2022-08-24T07:02:34.153Z,101375.59
2022-08-24T07:03:36.382Z,101364.69
2022-08-24T07:04:54.560Z,101375.63
2022-08-24T07:06:15.728Z,101372.00
2022-08-24T07:07:18.640Z,101376.34
2022-08-24T07:08:21.637Z,101377.88
2022-08-24T07:09:27.544Z,101377.28
2022-08-24T07:10:30.667Z,101376.91
2022-08-24T07:11:35.221Z,101372.63
2022-08-24T07:12:37.674Z,101379.25
2022-08-24T07:13:40.083Z,101366.97
2022-08-24T07:14:43.466Z,101376.38
2022-08-24T07:15:46.236Z,101373.09
2022-08-24T07:16:49.371Z,101376.88
2022-08-24T07:17:54.728Z,101372.78
2022-08-24T07:18:58.387Z,101365.88
2022-08-24T07:20:02.587Z,101373.94
2022-08-24T07:21:23.710Z,101360.06
2022-08-24T07:22:27.127Z,101367.72
2022-08-24T07:23:41.216Z,101365.16
2022-08-24T07:24:48.961Z,101356.38
2022-08-24T07:25:56.097Z,101362.25
2022-08-24T07:27:01.360Z,101363.66
2022-08-24T07:28:09.386Z,101358.03
2022-08-24T07:29:45.942Z,101362.59
2022-08-24T07:30:42.711Z,101364.22
2022-08-24T07:31:46.303Z,101363.00
2022-08-24T07:33:09.396Z,101351.38
2022-08-24T07:34:13.387Z,101353.38
2022-08-24T07:35:18.494Z,101352.41
2022-08-24T07:36:22.478Z,101350.53
2022-08-24T07:37:40.748Z,101359.03
2022-08-24T07:38:43.827Z,101348.53
2022-08-24T07:39:46.479Z,101349.19
2022-08-24T07:41:14.730Z,101353.09
2022-08-24T07:42:25.360Z,101355.63
2022-08-24T07:43:32.923Z,101358.19
2022-08-24T07:44:36.036Z,101357.31
2022-08-24T07:45:42.384Z,101353.03
2022-08-24T07:46:45.522Z,101353.84
2022-08-24T07:47:55.392Z,101353.00
2022-08-24T07:49:33.052Z,101347.66
2022-08-24T07:50:40.113Z,101344.56
2022-08-24T07:51:46.704Z,101335.13
2022-08-24T07:52:49.465Z,101341.09
2022-08-24T07:53:53.819Z,101347.16
2022-08-24T07:55:02.546Z,101339.38
2022-08-24T07:56:06.024Z,101337.53
2022-08-24T07:57:12.285Z,101344.66
2022-08-24T07:58:14.440Z,101335.63
2022-08-24T07:59:18.428Z,101339.34
2022-08-24T08:00:22.398Z,101335.72
2022-08-24T08:01:33.803Z,101332.81
2022-08-24T08:02:38.042Z,101339.31
2022-08-24T08:03:40.778Z,101327.25
2022-08-24T08:04:43.396Z,101332.72
2022-08-24T08:05:49.728Z,101340.75
2022-08-24T08:07:59.211Z,101333.94
2022-08-24T08:09:05.522Z,101333.94
2022-08-24T08:10:09.446Z,101342.00
2022-08-24T08:11:13.782Z,101331.38
2022-08-24T08:12:16.472Z,101334.16
2022-08-24T08:13:29.827Z,101342.44
2022-08-24T08:14:32.728Z,101323.22
2022-08-24T08:15:37.538Z,101327.00
2022-08-24T08:16:43.242Z,101330.75
2022-08-24T08:17:46.391Z,101324.53
2022-08-24T08:19:11.297Z,101328.31
2022-08-24T08:20:18.797Z,101330.59
2022-08-24T08:21:40.469Z,101324.31
2022-08-24T08:23:02.806Z,101327.13
2022-08-24T08:24:16.937Z,101328.97
2022-08-24T08:25:27.542Z,101325.81
2022-08-24T08:26:29.897Z,101325.91
2022-08-24T08:27:41.011Z,101318.28
2022-08-24T08:28:44.098Z,101316.34
2022-08-24T08:29:46.230Z,101325.09
2022-08-24T08:30:49.524Z,101328.50
2022-08-24T08:31:52.424Z,101322.09
2022-08-24T08:32:55.395Z,101315.66
2022-08-24T08:33:57.724Z,101335.53
2022-08-24T08:35:02.408Z,101312.38
2022-08-24T08:36:10.958Z,101320.22
2022-08-24T08:37:19.935Z,101313.13
2022-08-24T08:38:22.647Z,101306.44
2022-08-24T08:39:26.430Z,101309.66
2022-08-24T08:41:00.493Z,101311.31
2022-08-24T08:42:21.530Z,101315.19
2022-08-24T08:43:38.547Z,101320.34
2022-08-24T08:44:49.963Z,101314.78
2022-08-24T08:46:07.897Z,101319.94
2022-08-24T08:47:50.098Z,101312.34
2022-08-24T08:49:20.506Z,101305.19
2022-08-24T08:50:32.293Z,101313.16
2022-08-24T08:51:49.663Z,101309.44
2022-08-24T08:53:15.795Z,101308.78
2022-08-24T08:54:22.651Z,101304.22
2022-08-24T08:55:40.064Z,101303.31
2022-08-24T08:57:05.580Z,101302.06
2022-08-24T08:58:43.671Z,101308.16
2022-08-24T09:00:33.166Z,101305.16
2022-08-24T09:02:07.580Z,101303.44
2022-08-24T09:03:39.679Z,101294.59
2022-08-24T09:05:00.477Z,101293.41
2022-08-24T09:06:23.817Z,101294.88
2022-08-24T09:07:55.002Z,101296.75
2022-08-24T09:09:22.338Z,101294.59
2022-08-24T09:10:27.584Z,101288.53
2022-08-24T09:11:56.716Z,101294.81
2022-08-24T09:13:12.791Z,101292.78
2022-08-24T09:15:02.856Z,101290.56
2022-08-24T09:16:41.508Z,101287.09
2022-08-24T09:17:53.182Z,101281.09
2022-08-24T09:19:13.821Z,101288.94
2022-08-24T09:20:57.850Z,101285.91
2022-08-24T09:22:17.242Z,101280.75
2022-08-24T09:23:44.467Z,101278.03
2022-08-24T09:24:52.751Z,101280.66
2022-08-24T09:26:30.084Z,101273.41
2022-08-24T09:27:51.400Z,101275.97
2022-08-24T09:29:13.720Z,101273.41
2022-08-24T09:30:21.215Z,101272.63
2022-08-24T09:31:29.317Z,101270.00
2022-08-24T09:32:51.114Z,101268.19
2022-08-24T09:34:27.064Z,101272.88
2022-08-24T09:35:54.065Z,101276.53
2022-08-24T09:37:05.195Z,101272.88
2022-08-24T09:38:39.915Z,101263.16
2022-08-24T09:40:00.276Z,101277.78
2022-08-24T09:41:19.115Z,101276.56
2022-08-24T09:42:26.937Z,101267.66
2022-08-24T09:43:54.064Z,101268.91
2022-08-24T09:45:25.152Z,101265.03
2022-08-24T09:47:04.933Z,101268.59
2022-08-24T09:48:25.074Z,101269.00
2022-08-24T09:50:00.779Z,101273.91
2022-08-24T09:51:37.289Z,101267.44
2022-08-24T09:53:06.275Z,101264.72
2022-08-24T09:54:19.289Z,101273.97
2022-08-24T09:55:59.794Z,101283.22
2022-08-24T09:57:44.325Z,101274.81
2022-08-24T09:59:20.330Z,101271.72
2022-08-24T10:00:26.967Z,101277.16
2022-08-24T10:01:32.848Z,101258.50
2022-08-24T10:02:41.547Z,101272.00
2022-08-24T10:03:44.358Z,101259.16
2022-08-24T10:04:57.709Z,101263.91
2022-08-24T10:06:09.411Z,101265.91
2022-08-24T10:07:43.265Z,101275.63
2022-08-24T10:09:19.293Z,101266.44
2022-08-24T10:10:41.431Z,101258.75
2022-08-24T10:11:56.347Z,101256.00
2022-08-24T10:13:04.647Z,101259.44
2022-08-24T10:14:13.410Z,101260.31
2022-08-24T10:15:22.637Z,101263.72
2022-08-24T10:17:06.286Z,101271.47
2022-08-24T10:18:32.281Z,101252.31
2022-08-24T10:19:46.340Z,101263.00
2022-08-24T10:21:03.218Z,101256.38
2022-08-24T10:22:20.810Z,101258.53
2022-08-24T10:23:23.003Z,101261.44
2022-08-24T10:24:40.114Z,101250.63
2022-08-24T10:26:08.184Z,101258.75
2022-08-24T10:27:22.608Z,101253.50
2022-08-24T10:28:44.997Z,101265.69
2022-08-24T10:30:25.992Z,101254.09
2022-08-24T10:31:39.346Z,101257.81
2022-08-24T10:33:00.298Z,101260.13
2022-08-24T10:34:23.255Z,101256.03
2022-08-24T10:35:35.317Z,101260.00
2022-08-24T10:37:18.003Z,101258.25
2022-08-24T10:38:53.635Z,101256.84
2022-08-24T10:40:28.637Z,101253.09
2022-08-24T10:41:55.477Z,101248.53
2022-08-24T10:43:34.389Z,101255.25
2022-08-24T10:44:50.191Z,101259.50
2022-08-24T10:46:10.378Z,101247.31
2022-08-24T10:47:36.933Z,101250.66
2022-08-24T10:49:18.613Z,101247.50
2022-08-24T10:50:31.018Z,101242.91
2022-08-24T10:51:40.611Z,101249.50
2022-08-24T10:52:49.028Z,101238.94
2022-08-24T10:53:54.073Z,101243.19
2022-08-24T10:54:56.686Z,101242.50
2022-08-24T10:56:05.768Z,101241.50
2022-08-24T10:57:23.052Z,101244.47
2022-08-24T10:58:45.788Z,101240.84
2022-08-24T11:00:22.555Z,101235.22
2022-08-24T11:01:35.197Z,101222.56
2022-08-24T11:02:39.639Z,101228.84
2022-08-24T11:03:58.970Z,101231.03
2022-08-24T11:05:10.406Z,101235.31
2022-08-24T11:06:17.767Z,101223.84
2022-08-24T11:07:22.213Z,101230.16
2022-08-24T11:08:29.603Z,101230.53
2022-08-24T11:09:45.355Z,101230.59
2022-08-24T11:11:07.566Z,101235.34
2022-08-24T11:12:38.611Z,101235.41
2022-08-24T11:13:54.461Z,101231.28
2022-08-24T11:15:00.680Z,101231.28
2022-08-24T11:16:04.311Z,101218.59
2022-08-24T11:17:24.517Z,101228.56
2022-08-24T11:18:27.313Z,101221.41
2022-08-24T11:19:35.478Z,101226.72
2022-08-24T11:20:43.405Z,101227.69
2022-08-24T11:21:49.658Z,101219.88
2022-08-24T11:23:07.052Z,101230.81
2022-08-24T11:24:28.309Z,101213.94
2022-08-24T11:25:33.277Z,101221.31
2022-08-24T11:27:02.857Z,101223.66
2022-08-24T11:28:29.700Z,101215.53
2022-08-24T11:29:50.088Z,101209.28
2022-08-24T11:30:52.133Z,101211.44
2022-08-24T11:31:54.397Z,101205.78
2022-08-24T11:32:59.845Z,101210.84
2022-08-24T11:34:10.861Z,101211.66
2022-08-24T11:35:18.814Z,101213.25
2022-08-24T11:36:26.138Z,101206.69
2022-08-24T11:37:39.883Z,101210.72
2022-08-24T11:38:45.681Z,101202.19
2022-08-24T11:39:48.109Z,101201.59
2022-08-24T11:40:52.628Z,101214.59
2022-08-24T11:42:33.081Z,101215.66
2022-08-24T11:43:49.866Z,101207.63
2022-08-24T11:45:32.462Z,101205.91
2022-08-24T11:46:34.711Z,101217.59
2022-08-24T11:48:00.145Z,101216.81
2022-08-24T11:49:13.688Z,101213.94
2022-08-24T11:50:36.207Z,101212.25
2022-08-24T11:51:55.494Z,101199.88
2022-08-24T11:53:12.939Z,101199.41
2022-08-24T11:54:27.403Z,101193.72
2022-08-24T11:55:46.708Z,101201.56
2022-08-24T11:57:15.269Z,101204.84
2022-08-24T11:58:17.548Z,101200.38
2022-08-24T11:59:29.115Z,101199.53
2022-08-24T12:00:47.460Z,101204.47
2022-08-24T12:01:57.794Z,101196.88
2022-08-24T12:03:12.437Z,101188.06
2022-08-24T12:04:21.001Z,101191.75
2022-08-24T12:05:40.778Z,101196.16
2022-08-24T12:07:13.748Z,101196.16
2022-08-24T12:08:27.959Z,101197.00
2022-08-24T12:09:47.376Z,101195.72
2022-08-24T12:11:23.809Z,101205.03
2022-08-24T12:12:46.655Z,101196.44
2022-08-24T12:13:53.216Z,101184.13
2022-08-24T12:15:12.378Z,101186.56
2022-08-24T12:16:35.918Z,101188.72
2022-08-24T12:17:56.237Z,101193.59
2022-08-24T12:19:02.967Z,101193.59
2022-08-24T12:20:27.657Z,101182.84
2022-08-24T12:21:32.892Z,101181.13
2022-08-24T12:22:36.454Z,101163.94
2022-08-24T12:23:43.991Z,101178.06
2022-08-24T12:24:49.686Z,101173.97
2022-08-24T12:26:02.664Z,101178.41
2022-08-24T12:27:18.429Z,101167.88
2022-08-24T12:28:29.669Z,101179.56
2022-08-24T12:29:40.995Z,101185.41
2022-08-24T12:30:43.541Z,101186.91
2022-08-24T12:32:11.635Z,101176.81
2022-08-24T12:33:14.498Z,101178.41
2022-08-24T12:34:49.719Z,101178.97
2022-08-24T12:35:59.006Z,101161.88
2022-08-24T12:37:16.033Z,101172.03
2022-08-24T12:38:36.033Z,101177.97
2022-08-24T12:40:03.116Z,101185.41
2022-08-24T12:41:33.521Z,101171.31
2022-08-24T12:43:01.213Z,101173.09
2022-08-24T12:44:13.228Z,101170.22
2022-08-24T12:45:17.646Z,101170.94
2022-08-24T12:46:27.199Z,101170.94
2022-08-24T12:47:37.038Z,101164.50
2022-08-24T12:49:28.017Z,101171.09
2022-08-24T12:50:54.535Z,101168.28
2022-08-24T12:52:24.263Z,101160.47
2022-08-24T12:53:42.231Z,101160.06
2022-08-24T12:55:06.255Z,101163.72
2022-08-24T12:56:20.509Z,101164.06
2022-08-24T12:57:51.851Z,101158.84
2022-08-24T12:59:17.526Z,101166.38
2022-08-24T13:00:27.308Z,101163.06
2022-08-24T13:01:34.179Z,101162.44
2022-08-24T13:02:45.127Z,101156.44
2022-08-24T13:04:07.224Z,101171.75
2022-08-24T13:05:15.674Z,101161.88
2022-08-24T13:06:38.430Z,101149.91
2022-08-24T13:07:46.835Z,101154.06
2022-08-24T13:08:51.514Z,101154.78
2022-08-24T13:09:53.550Z,101157.16
2022-08-24T13:11:06.276Z,101151.63
2022-08-24T13:12:42.095Z,101159.13
2022-08-24T13:13:59.436Z,101148.38
2022-08-24T13:15:23.682Z,101147.81
2022-08-24T13:17:03.970Z,101143.56
2022-08-24T13:18:09.716Z,101135.50
2022-08-24T13:19:15.465Z,101137.84
2022-08-24T13:20:26.104Z,101137.66
2022-08-24T13:21:39.319Z,101139.44